Time;durP1;ratioP1;P1;durP2;ratioP2;P2;SDS_P1;SDS_P2;PMS_P1;PMS_P2;Temp;Humidity;BMP_temperature;BMP_pressure;BME280_temperature;BME280_humidity;BME280_pressure;Samples;Min_cycle;Max_cycle;Signal;HPM_P1;HPM_P2
2021/05/27 00:01:44;;;;;;;12.52;9.18;;;11.10;99.90;;;;;;4988774;28;20103;-69
2021/05/27 00:04:10;;;;;;;13.10;8.60;;;11.10;99.90;;;;;;4989978;28;20619;-70
2021/05/27 00:06:35;;;;;;;13.43;8.35;;;11.10;99.90;;;;;;4989667;28;20062;-69
2021/05/27 00:09:01;;;;;;;16.50;8.90;;;11.20;99.90;;;;;;4989731;28;20504;-69
2021/05/27 00:11:31;;;;;;;14.25;8.25;;;11.20;99.90;;;;;;4989752;28;20026;-70
2021/05/27 00:13:59;;;;;;;12.68;8.25;;;11.20;99.90;;;;;;4989612;28;20033;-70
2021/05/27 00:16:25;;;;;;;11.88;7.82;;;11.20;99.90;;;;;;4988458;28;20455;-69
2021/05/27 00:18:54;;;;;;;10.77;7.40;;;11.10;99.90;;;;;;4989514;28;20038;-69
2021/05/27 00:21:20;;;;;;;12.98;7.90;;;11.20;99.90;;;;;;4989517;28;20022;-70
2021/05/27 00:23:49;;;;;;;13.48;9.82;;;11.10;99.90;;;;;;4990498;28;20030;-70
2021/05/27 00:26:14;;;;;;;16.73;8.27;;;11.20;99.90;;;;;;4993026;28;20022;-70
2021/05/27 00:28:42;;;;;;;13.13;9.27;;;11.20;99.90;;;;;;4992960;28;20420;-69
2021/05/27 00:31:08;;;;;;;12.85;9.23;;;11.10;99.90;;;;;;4992839;28;20034;-70
2021/05/27 00:33:34;;;;;;;19.65;10.25;;;11.10;99.90;;;;;;4992853;28;20106;-70
2021/05/27 00:36:00;;;;;;;14.02;8.82;;;11.10;99.90;;;;;;4991716;28;20031;-70
2021/05/27 00:38:25;;;;;;;23.45;10.60;;;11.10;99.90;;;;;;4992799;28;20106;-69
2021/05/27 00:40:51;;;;;;;17.52;9.50;;;11.10;99.90;;;;;;4992678;28;20101;-69
2021/05/27 00:43:17;;;;;;;12.70;9.52;;;11.10;99.90;;;;;;4992834;28;20031;-69
2021/05/27 00:45:42;;;;;;;18.80;9.45;;;11.10;99.90;;;;;;4992707;28;20030;-70
2021/05/27 00:48:08;;;;;;;19.52;11.27;;;11.10;99.90;;;;;;4977400;28;20050;-71
2021/05/27 00:50:34;;;;;;;14.70;10.90;;;11.10;99.90;;;;;;4973124;28;20073;-69
2021/05/27 00:52:59;;;;;;;15.80;9.68;;;11.10;99.90;;;;;;4973128;28;20300;-69
2021/05/27 00:55:28;;;;;;;19.10;11.07;;;11.10;99.90;;;;;;4974287;28;20070;-70
2021/05/27 00:57:54;;;;;;;15.15;10.88;;;11.10;99.90;;;;;;4992579;28;20018;-69
2021/05/27 01:00:25;;;;;;;17.83;10.05;;;11.10;99.90;;;;;;4992389;28;20026;-70
2021/05/27 01:02:51;;;;;;;18.58;10.75;;;11.20;99.90;;;;;;4991385;28;20037;-70
2021/05/27 01:05:17;;;;;;;19.80;10.68;;;11.10;99.90;;;;;;4992493;28;20038;-70
2021/05/27 01:07:43;;;;;;;13.98;10.30;;;11.10;99.90;;;;;;4992370;28;20034;-70
2021/05/27 01:10:11;;;;;;;15.95;10.68;;;11.10;99.90;;;;;;4991169;28;20057;-69
2021/05/27 01:12:37;;;;;;;14.48;10.32;;;11.10;99.90;;;;;;4992172;28;20022;-70
2021/05/27 01:17:49;;;;;;;17.27;11.25;;;11.00;99.90;;;;;;5055315;28;20039;-70
2021/05/27 01:20:15;;;;;;;17.02;10.80;;;11.10;99.90;;;;;;5094722;28;20024;-70
2021/05/27 01:22:41;;;;;;;16.02;10.18;;;11.10;99.90;;;;;;5093856;28;20024;-70
2021/05/27 01:25:08;;;;;;;15.93;10.48;;;11.10;99.90;;;;;;5094807;28;20023;-69
2021/05/27 01:27:35;;;;;;;16.40;10.57;;;11.10;99.90;;;;;;5093725;28;20582;-70
2021/05/27 01:30:03;;;;;;;18.80;11.10;;;11.10;99.90;;;;;;5094591;28;20135;-69
2021/05/27 01:32:30;;;;;;;16.17;10.32;;;11.10;99.90;;;;;;5094757;28;20032;-69
2021/05/27 01:34:56;;;;;;;16.48;10.32;;;11.10;99.90;;;;;;5093941;28;20028;-70
2021/05/27 01:37:21;;;;;;;18.25;10.90;;;11.10;99.90;;;;;;5094435;28;20028;-70
2021/05/27 01:39:47;;;;;;;19.90;11.07;;;11.10;99.90;;;;;;5094518;28;20024;-70
2021/05/27 01:42:14;;;;;;;12.98;9.55;;;11.00;99.90;;;;;;5094551;28;20024;-70
2021/05/27 01:44:43;;;;;;;17.35;12.35;;;11.00;99.90;;;;;;5086752;28;20039;-70
2021/05/27 01:47:09;;;;;;;19.17;11.38;;;11.00;99.90;;;;;;4991859;28;20026;-69
2021/05/27 01:49:42;;;;;;;16.33;10.43;;;11.00;99.90;;;;;;4991597;28;20037;-69
2021/05/27 01:52:07;;;;;;;20.27;12.48;;;10.90;99.90;;;;;;4990898;28;20478;-69
2021/05/27 01:54:33;;;;;;;16.95;11.27;;;11.00;99.90;;;;;;4991290;28;20133;-69
2021/05/27 01:56:59;;;;;;;20.25;12.20;;;10.90;99.90;;;;;;4990421;28;20386;-70
2021/05/27 01:59:24;;;;;;;19.73;12.00;;;10.90;99.90;;;;;;4991486;28;20027;-70
2021/05/27 02:01:55;;;;;;;24.50;11.45;;;11.00;99.90;;;;;;4991569;28;20046;-69
2021/05/27 02:04:20;;;;;;;20.52;11.52;;;11.00;99.90;;;;;;4991436;28;20481;-69
2021/05/27 02:06:46;;;;;;;19.92;11.30;;;11.00;99.90;;;;;;4991563;28;20060;-70
2021/05/27 02:09:12;;;;;;;17.38;10.80;;;11.00;99.90;;;;;;4991374;28;20103;-70
2021/05/27 02:11:42;;;;;;;19.73;11.45;;;11.00;99.90;;;;;;4991476;28;20050;-70
2021/05/27 02:14:10;;;;;;;22.30;11.83;;;11.00;99.90;;;;;;4991429;28;20049;-70
2021/05/27 02:16:39;;;;;;;17.98;11.75;;;11.00;99.90;;;;;;4990286;28;20286;-70
2021/05/27 02:19:08;;;;;;;18.80;11.65;;;11.00;99.90;;;;;;4991340;28;20088;-70
2021/05/27 02:21:35;;;;;;;19.50;11.82;;;11.00;99.90;;;;;;4991381;28;20030;-69
2021/05/27 02:24:02;;;;;;;17.58;10.88;;;11.10;99.90;;;;;;4990378;28;20062;-69
2021/05/27 02:26:28;;;;;;;17.55;11.32;;;11.10;99.90;;;;;;4991150;28;20030;-70
2021/05/27 02:28:55;;;;;;;22.08;11.82;;;11.10;99.90;;;;;;4991176;28;20045;-70
2021/05/27 02:31:23;;;;;;;20.90;11.60;;;11.10;99.90;;;;;;4991098;28;20027;-69
2021/05/27 02:33:50;;;;;;;18.13;12.25;;;11.10;99.90;;;;;;4991084;28;20089;-70
2021/05/27 02:36:16;;;;;;;21.08;11.68;;;11.10;99.90;;;;;;5076835;28;20032;-70
2021/05/27 02:38:41;;;;;;;21.95;12.63;;;11.00;99.90;;;;;;5093330;28;20099;-70
2021/05/27 02:41:07;;;;;;;18.73;12.75;;;11.00;99.90;;;;;;5093360;28;20044;-69
2021/05/27 02:43:33;;;;;;;20.67;12.63;;;10.90;99.90;;;;;;5093374;28;20020;-70
2021/05/27 02:46:01;;;;;;;16.83;12.68;;;11.00;99.90;;;;;;5093336;28;20092;-70
2021/05/27 02:48:27;;;;;;;18.67;11.65;;;11.00;99.90;;;;;;5004035;28;20101;-69
2021/05/27 02:50:54;;;;;;;16.00;12.40;;;11.00;99.90;;;;;;4990797;28;20072;-69
2021/05/27 02:53:19;;;;;;;18.05;11.55;;;11.00;99.90;;;;;;4990808;28;20034;-70
2021/05/27 02:55:48;;;;;;;16.70;12.15;;;11.00;99.90;;;;;;4990454;28;20065;-70
2021/05/27 02:58:17;;;;;;;21.02;12.27;;;11.10;99.90;;;;;;4990692;28;20034;-70
2021/05/27 03:00:42;;;;;;;20.27;12.40;;;11.00;99.90;;;;;;4990613;28;20102;-70
2021/05/27 03:03:11;;;;;;;22.85;13.65;;;11.10;99.90;;;;;;4990263;28;20152;-70
2021/05/27 03:05:37;;;;;;;19.20;12.20;;;11.10;99.90;;;;;;4990315;28;20336;-69
2021/05/27 03:08:05;;;;;;;22.80;14.18;;;11.10;99.90;;;;;;4990113;28;20026;-69
2021/05/27 03:10:31;;;;;;;17.15;12.57;;;11.10;99.90;;;;;;4990050;28;20044;-69
2021/05/27 03:12:56;;;;;;;18.08;12.90;;;11.10;99.90;;;;;;4989377;28;20026;-69
2021/05/27 03:15:25;;;;;;;22.20;13.43;;;11.10;99.90;;;;;;4990150;28;20042;-69
2021/05/27 03:17:50;;;;;;;30.63;14.25;;;11.10;99.90;;;;;;4990265;28;20099;-70
2021/05/27 03:20:16;;;;;;;20.25;11.93;;;11.10;99.90;;;;;;4990266;28;20030;-70
2021/05/27 03:22:41;;;;;;;17.95;11.60;;;11.10;99.90;;;;;;4990325;28;20022;-70
2021/05/27 03:25:08;;;;;;;14.52;10.80;;;11.10;99.90;;;;;;4983474;28;20090;-69
2021/05/27 03:27:34;;;;;;;17.60;11.25;;;11.10;99.90;;;;;;4970704;28;20034;-69
2021/05/27 03:30:00;;;;;;;19.05;11.90;;;11.10;99.90;;;;;;4970710;28;20034;-68
2021/05/27 03:32:26;;;;;;;16.23;10.88;;;11.10;99.90;;;;;;4970576;28;20026;-68
2021/05/27 03:34:51;;;;;;;15.68;11.13;;;11.10;99.90;;;;;;4970636;28;20027;-69
2021/05/27 03:37:17;;;;;;;15.80;12.02;;;11.10;99.90;;;;;;4969552;28;20035;-69
2021/05/27 03:40:10;;;;;;;16.10;11.27;;;11.10;99.90;;;;;;4970509;28;20076;-70
2021/05/27 03:42:28;;;;;;;17.65;12.27;;;11.10;99.90;;;;;;4970421;28;20027;-70
2021/05/27 03:44:54;;;;;;;23.85;12.75;;;11.10;99.90;;;;;;4970614;28;20368;-69
2021/05/27 03:47:20;;;;;;;16.60;11.52;;;11.10;99.90;;;;;;4978570;28;20034;-69
2021/05/27 03:49:45;;;;;;;17.17;12.02;;;11.10;99.90;;;;;;4988738;28;20034;-70
2021/05/27 03:52:11;;;;;;;17.80;11.95;;;11.10;99.90;;;;;;4990957;28;20140;-69
2021/05/27 03:54:38;;;;;;;19.00;12.48;;;11.10;99.90;;;;;;4989653;28;20084;-70
2021/05/27 03:57:04;;;;;;;18.42;13.77;;;11.10;99.90;;;;;;4990271;28;20046;-70
2021/05/27 04:02:15;;;;;;;22.23;13.82;;;11.00;99.90;;;;;;4989853;28;20037;-69
2021/05/27 04:07:27;;;;;;;17.85;11.90;;;10.90;99.90;;;;;;4989802;28;20041;-69
2021/05/27 04:09:52;;;;;;;20.88;11.77;;;10.90;99.90;;;;;;4989784;28;20030;-69
2021/05/27 04:17:53;;;;;;;17.10;11.88;;;11.00;99.90;;;;;;5030461;28;20060;-70
2021/05/27 04:20:22;;;;;;;20.15;12.85;;;11.10;99.90;;;;;;4989871;28;20026;-70
2021/05/27 04:22:48;;;;;;;18.15;12.43;;;11.10;99.90;;;;;;4989777;28;20104;-70
2021/05/27 04:25:15;;;;;;;20.23;13.32;;;11.10;99.90;;;;;;4989517;28;20022;-69
2021/05/27 04:27:44;;;;;;;17.88;12.68;;;11.10;99.90;;;;;;4988663;28;20034;-69
2021/05/27 04:30:14;;;;;;;21.52;13.07;;;11.10;99.90;;;;;;4989670;28;20084;-69
2021/05/27 04:32:55;;;;;;;26.33;16.48;;;11.20;99.90;;;;;;4989787;28;20419;-69
2021/05/27 04:35:40;;;;;;;22.90;16.37;;;11.20;99.90;;;;;;4989542;28;20113;-69
2021/05/27 04:38:10;;;;;;;25.63;14.60;;;11.20;99.90;;;;;;4989411;28;20049;-69
2021/05/27 04:40:38;;;;;;;24.40;16.40;;;11.30;99.90;;;;;;4988677;28;20018;-69
2021/05/27 04:43:04;;;;;;;20.67;13.70;;;11.30;99.90;;;;;;4989714;28;20022;-69
2021/05/27 04:45:29;;;;;;;23.60;16.33;;;11.30;99.90;;;;;;4989479;28;20041;-68
2021/05/27 04:47:58;;;;;;;21.02;13.48;;;11.30;99.90;;;;;;4989380;28;20372;-69
2021/05/27 04:50:27;;;;;;;22.83;14.80;;;11.30;99.90;;;;;;4989225;28;20026;-69
2021/05/27 04:52:52;;;;;;;19.70;13.43;;;11.30;99.90;;;;;;4989194;28;20023;-70
2021/05/27 04:55:23;;;;;;;20.95;13.18;;;11.30;99.90;;;;;;4989096;28;20049;-69
2021/05/27 04:57:49;;;;;;;21.38;13.60;;;11.30;99.90;;;;;;4987983;28;20042;-68
2021/05/27 05:00:20;;;;;;;23.38;14.90;;;11.40;99.90;;;;;;4989218;28;20027;-69
2021/05/27 05:02:45;;;;;;;19.50;14.75;;;11.40;99.90;;;;;;4988896;28;20034;-68
2021/05/27 05:05:14;;;;;;;19.75;12.85;;;11.30;99.90;;;;;;4989087;28;20025;-70
2021/05/27 05:07:42;;;;;;;18.60;13.43;;;11.30;99.90;;;;;;4988889;28;20039;-69
2021/05/27 05:10:10;;;;;;;24.27;13.07;;;11.30;99.90;;;;;;4990242;28;20095;-68
2021/05/27 05:12:51;;;;;;;20.83;14.20;;;11.30;99.90;;;;;;4991125;28;20026;-69
2021/05/27 05:15:30;;;;;;;18.38;13.68;;;11.30;99.90;;;;;;4992520;28;20033;-70
2021/05/27 05:17:57;;;;;;;21.63;14.20;;;11.30;99.90;;;;;;5059949;28;20334;-69
2021/05/27 05:20:25;;;;;;;19.45;14.98;;;11.30;99.90;;;;;;5094959;28;20022;-70
2021/05/27 05:22:54;;;;;;;25.90;16.63;;;11.30;99.90;;;;;;5095061;28;20307;-69
2021/05/27 05:25:21;;;;;;;22.17;15.52;;;11.30;99.90;;;;;;5094893;28;20028;-69
2021/05/27 05:27:47;;;;;;;24.48;16.05;;;11.20;99.90;;;;;;5095389;28;20028;-69
2021/05/27 05:30:14;;;;;;;22.88;16.13;;;11.20;99.90;;;;;;5094951;28;20035;-70
2021/05/27 05:32:41;;;;;;;25.05;16.85;;;11.20;99.90;;;;;;5094631;28;20016;-69
2021/05/27 05:35:12;;;;;;;28.00;19.30;;;11.20;99.90;;;;;;5094579;28;20024;-69
2021/05/27 05:37:38;;;;;;;26.85;18.10;;;11.10;99.90;;;;;;5094538;28;20028;-69
2021/05/27 05:40:06;;;;;;;22.42;16.90;;;11.20;99.90;;;;;;5094612;28;20478;-69
2021/05/27 05:42:32;;;;;;;24.42;16.73;;;11.20;99.90;;;;;;5094744;28;20024;-70
2021/05/27 05:44:57;;;;;;;26.05;18.45;;;11.20;99.90;;;;;;5094273;28;20039;-70
2021/05/27 05:47:23;;;;;;;26.40;19.58;;;11.10;99.90;;;;;;5011118;28;20525;-70
2021/05/27 05:49:49;;;;;;;28.35;19.83;;;11.10;99.90;;;;;;4990789;28;20034;-69
2021/05/27 05:52:14;;;;;;;28.42;18.25;;;11.10;99.90;;;;;;4991541;28;20033;-69
2021/05/27 05:54:40;;;;;;;30.75;19.35;;;11.10;99.90;;;;;;4991557;28;20588;-69
2021/05/27 05:57:06;;;;;;;26.20;19.85;;;11.10;99.90;;;;;;4990408;28;20353;-69
2021/05/27 05:59:32;;;;;;;28.98;20.20;;;11.10;99.90;;;;;;4991422;28;20079;-70
2021/05/27 06:01:58;;;;;;;28.90;19.52;;;11.10;99.90;;;;;;4991392;28;20447;-69
2021/05/27 06:04:24;;;;;;;27.00;19.10;;;11.00;99.90;;;;;;4991509;28;20030;-68
2021/05/27 06:06:51;;;;;;;30.08;18.95;;;11.00;99.90;;;;;;4990106;28;20064;-70
2021/05/27 06:09:19;;;;;;;28.73;19.23;;;11.00;99.90;;;;;;4991023;28;20039;-70
2021/05/27 06:11:47;;;;;;;28.75;18.92;;;11.00;99.90;;;;;;4991321;28;20463;-71
2021/05/27 06:14:13;;;;;;;28.65;19.10;;;11.10;99.90;;;;;;4990969;28;20034;-70
2021/05/27 06:16:41;;;;;;;27.63;17.63;;;11.10;99.90;;;;;;5003923;28;20088;-69
2021/05/27 06:19:07;;;;;;;24.38;17.20;;;11.20;99.90;;;;;;5093496;28;20032;-68
2021/05/27 06:21:33;;;;;;;22.85;16.05;;;11.20;99.90;;;;;;5093017;28;20073;-70
2021/05/27 06:24:01;;;;;;;26.60;15.43;;;11.30;99.90;;;;;;5093378;28;20437;-70
2021/05/27 06:26:27;;;;;;;20.77;14.57;;;11.30;99.90;;;;;;5092334;28;20473;-70
2021/05/27 06:28:53;;;;;;;24.60;15.23;;;11.30;99.90;;;;;;5093544;28;20038;-70
2021/05/27 06:31:19;;;;;;;23.48;14.70;;;11.30;99.90;;;;;;5093640;28;20024;-69
2021/05/27 06:33:44;;;;;;;23.42;14.40;;;11.40;99.90;;;;;;5093494;28;20349;-69
2021/05/27 06:36:13;;;;;;;22.63;13.85;;;11.40;99.90;;;;;;5093395;28;20031;-70
2021/05/27 06:38:41;;;;;;;20.80;13.52;;;11.40;99.90;;;;;;5093317;28;20020;-70
2021/05/27 06:41:07;;;;;;;19.15;13.68;;;11.50;99.90;;;;;;5093329;28;20056;-70
2021/05/27 06:43:34;;;;;;;23.63;14.95;;;11.50;99.90;;;;;;5093377;28;20028;-71
2021/05/27 06:46:02;;;;;;;19.55;13.80;;;11.60;99.90;;;;;;4995496;28;20054;-71
2021/05/27 06:48:27;;;;;;;20.02;14.30;;;11.50;99.90;;;;;;4990943;28;20041;-71
2021/05/27 06:50:55;;;;;;;17.95;13.15;;;11.50;99.90;;;;;;4989681;28;20355;-71
2021/05/27 06:53:21;;;;;;;22.90;15.10;;;11.60;99.90;;;;;;4989510;28;20109;-74
2021/05/27 06:55:48;;;;;;;22.50;13.95;;;11.50;99.90;;;;;;4989950;28;20122;-72
2021/05/27 06:58:14;;;;;;;17.55;13.23;;;11.60;99.90;;;;;;4989241;28;20030;-74
2021/05/27 07:00:43;;;;;;;17.42;13.70;;;11.60;99.90;;;;;;4987494;28;20462;-72
2021/05/27 07:03:11;;;;;;;20.33;13.95;;;11.60;99.90;;;;;;4989182;28;20033;-70
2021/05/27 07:05:37;;;;;;;22.98;14.57;;;11.60;99.90;;;;;;4989658;28;20018;-69
2021/05/27 07:08:06;;;;;;;22.23;13.70;;;11.60;99.90;;;;;;4989353;28;20105;-70
2021/05/27 07:10:32;;;;;;;19.80;13.38;;;11.60;99.90;;;;;;4990127;28;20030;-71
2021/05/27 07:13:04;;;;;;;19.08;13.85;;;11.60;99.90;;;;;;4990795;28;20040;-71
2021/05/27 07:15:30;;;;;;;21.10;13.40;;;11.80;99.90;;;;;;4989289;28;20046;-71
2021/05/27 07:17:57;;;;;;;18.40;13.68;;;11.80;99.90;;;;;;5057577;28;20024;-70
2021/05/27 07:20:24;;;;;;;24.42;14.77;;;11.80;99.90;;;;;;5091747;28;20024;-70
2021/05/27 07:22:51;;;;;;;19.75;14.63;;;11.90;99.90;;;;;;5092502;28;20023;-71
2021/05/27 07:25:23;;;;;;;20.65;14.60;;;11.90;99.90;;;;;;5092312;28;20069;-70
2021/05/27 07:27:52;;;;;;;21.55;16.25;;;11.90;99.90;;;;;;5057710;28;20034;-72
2021/05/27 07:30:21;;;;;;;24.95;15.85;;;11.90;99.90;;;;;;4990877;28;20505;-72
2021/05/27 07:32:46;;;;;;;21.83;14.82;;;11.90;99.90;;;;;;4990389;28;20033;-71
2021/05/27 07:35:15;;;;;;;24.90;16.48;;;12.10;99.90;;;;;;5000250;28;20545;-70
2021/05/27 07:37:43;;;;;;;20.75;14.30;;;12.10;99.90;;;;;;4992840;28;20042;-72
2021/05/27 07:40:09;;;;;;;22.58;14.93;;;12.30;99.90;;;;;;4987543;28;20030;-71
2021/05/27 07:42:36;;;;;;;21.73;14.95;;;12.50;99.90;;;;;;4991057;28;20020;-74
2021/05/27 07:45:03;;;;;;;26.10;15.30;;;12.70;99.90;;;;;;4992764;28;20037;-72
2021/05/27 07:47:31;;;;;;;21.45;14.98;;;12.90;99.90;;;;;;4988383;28;20121;-71
2021/05/27 07:49:57;;;;;;;19.65;14.00;;;12.90;99.90;;;;;;4998052;28;20027;-68
2021/05/27 07:52:24;;;;;;;21.55;15.63;;;12.90;99.90;;;;;;5001818;28;20087;-70
2021/05/27 07:54:53;;;;;;;18.08;12.40;;;13.10;99.90;;;;;;5001419;28;20057;-67
2021/05/27 07:57:21;;;;;;;18.70;13.90;;;13.00;99.90;;;;;;5001432;28;20121;-69
2021/05/27 07:59:47;;;;;;;17.40;12.55;;;13.10;99.90;;;;;;4999643;28;20095;-68
2021/05/27 08:02:13;;;;;;;18.30;13.23;;;13.00;99.90;;;;;;4987876;28;20057;-68
2021/05/27 08:04:42;;;;;;;16.95;12.65;;;13.20;99.90;;;;;;4989522;28;20080;-68
2021/05/27 08:07:11;;;;;;;23.67;14.95;;;13.00;99.90;;;;;;4989501;28;20030;-68
2021/05/27 08:09:39;;;;;;;17.13;12.48;;;12.90;99.90;;;;;;4990088;28;20574;-68
2021/05/27 08:12:08;;;;;;;17.25;11.82;;;12.90;99.90;;;;;;4989366;28;20414;-69
2021/05/27 08:14:34;;;;;;;22.13;13.63;;;13.00;99.90;;;;;;4989351;28;20106;-68
2021/05/27 08:17:00;;;;;;;20.33;12.23;;;13.10;99.90;;;;;;5017508;28;20111;-68
2021/05/27 08:19:26;;;;;;;20.73;12.25;;;13.10;99.90;;;;;;5091704;28;20016;-68
2021/05/27 08:21:55;;;;;;;19.45;12.93;;;13.10;99.90;;;;;;5091471;28;20519;-67
2021/05/27 08:24:21;;;;;;;17.27;10.95;;;12.80;99.90;;;;;;5025744;28;20026;-70
2021/05/27 08:26:49;;;;;;;20.77;13.45;;;12.60;99.90;;;;;;4989737;28;20091;-67
2021/05/27 08:29:17;;;;;;;21.77;14.05;;;12.50;99.90;;;;;;4989387;28;20026;-68
2021/05/27 08:31:43;;;;;;;21.45;15.18;;;12.30;99.90;;;;;;4989026;28;20053;-67
2021/05/27 08:34:10;;;;;;;19.35;13.30;;;12.10;99.90;;;;;;4989455;28;20038;-68
2021/05/27 08:36:38;;;;;;;24.40;15.95;;;12.00;99.90;;;;;;4989340;28;20049;-68
2021/05/27 08:39:05;;;;;;;25.13;15.68;;;11.90;99.90;;;;;;4989221;28;20018;-68
2021/05/27 08:41:30;;;;;;;21.27;13.40;;;11.90;99.90;;;;;;4988692;28;20023;-68
2021/05/27 08:43:57;;;;;;;24.77;14.52;;;12.00;99.90;;;;;;4989013;28;20030;-69
2021/05/27 08:46:23;;;;;;;25.20;14.23;;;12.10;99.90;;;;;;4992405;28;20464;-69
2021/05/27 08:48:50;;;;;;;18.88;11.48;;;12.30;99.90;;;;;;4992747;28;20058;-69
2021/05/27 08:51:16;;;;;;;21.48;12.15;;;12.40;99.90;;;;;;4992264;28;20054;-69
2021/05/27 08:53:45;;;;;;;18.55;11.23;;;12.40;99.90;;;;;;4992231;28;20429;-67
2021/05/27 08:56:12;;;;;;;18.67;11.32;;;12.50;99.90;;;;;;4992586;28;20099;-67
2021/05/27 08:58:44;;;;;;;17.65;12.23;;;12.50;99.90;;;;;;4991348;28;20026;-67
2021/05/27 09:01:10;;;;;;;20.90;11.40;;;12.60;99.90;;;;;;4992124;28;20033;-69
2021/05/27 09:03:43;;;;;;;18.25;11.30;;;12.60;99.90;;;;;;4992195;28;20398;-68
2021/05/27 09:06:10;;;;;;;16.77;10.10;;;12.50;99.90;;;;;;4992110;28;20118;-69
2021/05/27 09:08:39;;;;;;;18.33;10.95;;;12.40;99.90;;;;;;4992145;28;20482;-68
2021/05/27 09:11:15;;;;;;;20.42;10.73;;;12.40;99.90;;;;;;4991657;28;20068;-67
2021/05/27 09:13:57;;;;;;;14.52;9.65;;;12.60;99.90;;;;;;5042698;28;20020;-67
2021/05/27 09:16:25;;;;;;;16.85;10.05;;;12.50;99.90;;;;;;5093218;28;20020;-68
2021/05/27 09:18:51;;;;;;;16.45;10.43;;;12.60;99.90;;;;;;4991756;28;20048;-67
2021/05/27 09:21:38;;;;;;;14.32;8.23;;;12.70;99.90;;;;;;4990605;28;20482;-67
2021/05/27 09:24:04;;;;;;;12.05;8.00;;;12.70;99.90;;;;;;4991872;28;20079;-70
2021/05/27 09:26:29;;;;;;;10.65;8.63;;;12.70;99.90;;;;;;4991866;28;20030;-68
2021/05/27 09:29:12;;;;;;;13.98;8.52;;;12.70;99.90;;;;;;4991843;28;20058;-69
2021/05/27 09:31:57;;;;;;;13.82;8.32;;;12.90;99.90;;;;;;4990599;28;20433;-68
2021/05/27 09:34:43;;;;;;;13.02;8.40;;;12.70;99.90;;;;;;4990486;28;20038;-69
2021/05/27 09:37:28;;;;;;;15.07;8.43;;;12.60;99.90;;;;;;4991630;28;20041;-69
2021/05/27 09:39:57;;;;;;;16.85;9.57;;;12.60;99.90;;;;;;4991592;28;20034;-69
2021/05/27 09:42:24;;;;;;;15.63;8.73;;;12.50;99.90;;;;;;4991407;28;20019;-69
2021/05/27 09:44:52;;;;;;;16.25;8.15;;;12.50;99.90;;;;;;4991754;28;20110;-69
2021/05/27 09:47:34;;;;;;;17.77;8.63;;;12.50;99.90;;;;;;4983627;28;20039;-69
2021/05/27 09:50:03;;;;;;;11.48;6.00;;;12.40;99.90;;;;;;4971862;28;20030;-69
2021/05/27 09:52:41;;;;;;;9.52;6.20;;;12.30;99.90;;;;;;4972027;28;20090;-69
2021/05/27 09:55:11;;;;;;;7.85;5.40;;;12.10;99.90;;;;;;4971716;28;20057;-70
2021/05/27 09:57:37;;;;;;;18.63;7.00;;;12.00;99.90;;;;;;4970926;28;20058;-69
2021/05/27 10:00:09;;;;;;;10.65;6.30;;;12.00;99.90;;;;;;4971623;28;20145;-69
2021/05/27 10:02:35;;;;;;;11.75;6.05;;;12.00;99.90;;;;;;4972006;28;20098;-69
2021/05/27 10:05:05;;;;;;;11.60;5.97;;;12.00;99.90;;;;;;4990860;28;20109;-69
2021/05/27 10:07:46;;;;;;;12.60;6.50;;;12.00;99.90;;;;;;4991012;28;20087;-69
2021/05/27 10:10:21;;;;;;;11.93;6.35;;;11.90;99.90;;;;;;4990969;28;20054;-69
2021/05/27 10:12:50;;;;;;;12.27;6.97;;;12.00;99.90;;;;;;4991166;28;20048;-69
2021/05/27 10:15:18;;;;;;;8.57;5.90;;;12.00;99.90;;;;;;4990688;28;20030;-69
2021/05/27 10:17:47;;;;;;;15.35;7.03;;;12.00;99.90;;;;;;5049893;28;20338;-69
2021/05/27 10:20:17;;;;;;;14.52;6.85;;;12.00;99.90;;;;;;5093146;28;20020;-69
2021/05/27 10:22:45;;;;;;;12.73;7.03;;;12.00;99.90;;;;;;5093339;28;20344;-69
2021/05/27 10:25:14;;;;;;;11.85;7.93;;;12.00;99.90;;;;;;5093523;28;20392;-69
2021/05/27 10:27:42;;;;;;;15.48;7.78;;;12.00;99.90;;;;;;5061829;28;20093;-70
2021/05/27 10:30:09;;;;;;;11.70;6.82;;;12.10;99.90;;;;;;4989197;28;20088;-68
2021/05/27 10:32:44;;;;;;;12.02;7.32;;;12.30;99.90;;;;;;4990505;28;20534;-67
2021/05/27 10:35:14;;;;;;;11.73;7.20;;;12.30;99.90;;;;;;4990702;28;20038;-70
2021/05/27 10:37:42;;;;;;;11.87;6.83;;;12.20;99.90;;;;;;4989524;28;20099;-69
2021/05/27 10:40:20;;;;;;;15.52;8.23;;;12.20;99.90;;;;;;4990162;28;20034;-68
2021/05/27 10:42:55;;;;;;;12.88;8.68;;;12.20;99.90;;;;;;4989687;28;20030;-73
2021/05/27 10:45:22;;;;;;;11.95;7.35;;;12.30;99.90;;;;;;4990269;28;20025;-71
2021/05/27 10:48:15;;;;;;;11.45;7.35;;;12.40;99.90;;;;;;4991005;28;20034;-72
2021/05/27 10:51:24;;;;;;;15.57;8.07;;;12.50;99.90;;;;;;4990880;28;20053;-71
2021/05/27 10:53:42;;;;;;;18.15;7.97;;;12.40;99.90;;;;;;5029819;28;20032;-70
2021/05/27 10:56:08;;;;;;;10.50;7.38;;;12.30;99.90;;;;;;5093233;28;20097;-72
2021/05/27 10:58:49;;;;;;;19.17;8.80;;;12.30;99.90;;;;;;5093080;28;20089;-71
2021/05/27 11:01:30;;;;;;;14.65;8.68;;;12.30;99.90;;;;;;5093006;28;20028;-71
2021/05/27 11:04:07;;;;;;;15.48;8.02;;;12.50;99.90;;;;;;5092700;28;20095;-71
2021/05/27 11:06:32;;;;;;;13.20;7.50;;;12.50;99.90;;;;;;5093066;28;20028;-71
2021/05/27 11:09:16;;;;;;;18.77;9.07;;;12.40;99.90;;;;;;5092777;28;20043;-71
2021/05/27 11:12:16;;;;;;;18.42;8.80;;;12.20;99.90;;;;;;5092827;28;20032;-71
2021/05/27 11:14:52;;;;;;;12.35;8.07;;;12.20;99.90;;;;;;5092440;28;20055;-72
2021/05/27 11:17:22;;;;;;;16.60;9.07;;;12.00;99.90;;;;;;5051625;28;20030;-72
2021/05/27 11:25:15;;;;;;;18.77;9.43;;;11.60;99.90;;;;;;4990330;28;20026;-71
2021/05/27 11:27:52;;;;;;;15.15;8.23;;;11.70;99.90;;;;;;4990213;28;20038;-71
2021/05/27 11:30:41;;;;;;;14.30;8.60;;;11.80;99.90;;;;;;4990171;28;20335;-71
2021/05/27 11:33:15;;;;;;;12.95;9.00;;;11.70;99.90;;;;;;4977975;28;20117;-71
2021/05/27 11:35:43;;;;;;;22.10;10.52;;;11.60;99.90;;;;;;4989669;28;20042;-73
2021/05/27 11:38:20;;;;;;;13.30;9.48;;;11.70;99.90;;;;;;4989366;28;20579;-69
2021/05/27 11:40:52;;;;;;;15.68;9.02;;;12.00;99.90;;;;;;4990096;28;20046;-71
2021/05/27 11:43:25;;;;;;;14.82;9.20;;;12.10;99.90;;;;;;4990111;28;20073;-71
2021/05/27 11:45:53;;;;;;;14.98;9.25;;;12.30;99.90;;;;;;4989903;28;20034;-69
2021/05/27 11:48:35;;;;;;;13.38;9.07;;;12.50;99.90;;;;;;5073731;28;20024;-76
2021/05/27 11:51:17;;;;;;;12.55;8.30;;;12.60;99.90;;;;;;5090820;28;20051;-71
2021/05/27 11:53:56;;;;;;;12.93;8.52;;;12.70;99.90;;;;;;5091583;28;20028;-73
2021/05/27 11:56:42;;;;;;;14.15;8.18;;;12.90;99.90;;;;;;5091704;28;20368;-69
2021/05/27 11:59:19;;;;;;;11.20;7.85;;;13.00;99.90;;;;;;5091474;28;20035;-73
2021/05/27 12:01:57;;;;;;;12.73;8.02;;;13.00;99.90;;;;;;5092634;28;20024;-76
2021/05/27 12:04:24;;;;;;;14.63;8.80;;;12.70;99.90;;;;;;5091866;28;20016;-74
2021/05/27 12:06:58;;;;;;;15.43;9.65;;;12.50;99.90;;;;;;5091688;28;20337;-79
2021/05/27 12:09:31;;;;;;;16.70;10.50;;;12.40;99.90;;;;;;5091871;28;20573;-71
2021/05/27 12:12:19;;;;;;;15.32;9.60;;;12.50;99.90;;;;;;5090910;28;20441;-73
2021/05/27 12:15:02;;;;;;;17.30;9.55;;;12.60;99.90;;;;;;5078080;28;20097;-74
2021/05/27 12:17:38;;;;;;;19.55;9.77;;;12.70;99.90;;;;;;5043207;28;20200;-71
2021/05/27 12:20:27;;;;;;;16.02;9.93;;;12.80;99.90;;;;;;4987200;28;20041;-71
2021/05/27 12:23:16;;;;;;;14.95;9.50;;;12.90;99.90;;;;;;4978815;28;20121;-70
2021/05/27 12:25:47;;;;;;;17.48;11.00;;;12.80;99.90;;;;;;4989273;28;20319;-71
2021/05/27 12:28:17;;;;;;;16.90;11.68;;;12.70;99.90;;;;;;4988985;28;20467;-71
2021/05/27 12:30:55;;;;;;;16.50;9.95;;;12.60;99.90;;;;;;4989152;28;20105;-71
2021/05/27 12:33:34;;;;;;;16.98;11.75;;;12.50;99.90;;;;;;5053773;28;20313;-72
2021/05/27 12:36:08;;;;;;;23.63;12.55;;;12.60;99.90;;;;;;5091406;28;20027;-71
2021/05/27 12:38:40;;;;;;;17.65;11.10;;;12.50;99.90;;;;;;5091219;28;20031;-71
2021/05/27 12:41:07;;;;;;;18.00;12.02;;;12.50;99.90;;;;;;5091485;28;20031;-71
2021/05/27 12:43:46;;;;;;;16.10;10.07;;;12.60;99.90;;;;;;5091613;28;20357;-71
2021/05/27 12:46:12;;;;;;;15.38;11.23;;;12.70;99.90;;;;;;5091291;28;20440;-70
2021/05/27 12:48:52;;;;;;;20.60;12.60;;;12.80;99.90;;;;;;4993367;28;20062;-70
2021/05/27 12:51:19;;;;;;;15.88;10.70;;;13.20;99.90;;;;;;4989302;28;20034;-70
2021/05/27 12:53:49;;;;;;;19.83;11.05;;;13.70;99.90;;;;;;4987901;28;20108;-69
2021/05/27 12:56:18;;;;;;;19.27;10.70;;;14.00;99.90;;;;;;4988985;28;20116;-70
2021/05/27 12:58:52;;;;;;;14.75;9.23;;;14.00;99.90;;;;;;4988631;28;20018;-70
2021/05/27 13:01:34;;;;;;;16.80;10.38;;;14.00;99.90;;;;;;4989384;28;20042;-70